الصفحة الرئيسية
METAR-TAF:

METAR-TAF

مطار :

Fort Richardson, ألاسكا, الولايات المتحدة

دائرة عرض: 61-15-45N, خط طول: 149-39-17W, ارتفاع: 115 متر

مراقبة الطقس الحالي

تاريخ ووقت الإصدار 32 دقيقة قبل الساعة 17:55UTC
رياح هادئة
درجة الحرارة -11°درجة مئوية
الرطوبة 72%
ضغط 1015 hPa
الرؤية: 14.5 كم
غيوم مفككة على ارتفاع 7000 قدم
ملبد بالغيوم على ارتفاع 15000 قدم

METAR: PAFR 041755Z AUTO 00000KT 9SM BKN070 OVC150 M11/M15 A2998 RMK AO2 SLP165 T11071148 11087 21110 57005 $

زمن: 09:27 (18:27 UTC)


TAF: مفقودة

أرصاد الطقس والتوقعات من أكثر من 4000 مطار (تقارير الطقس للمطار METAR والتنبؤ بالطقس بالمطارTAF).

المحطات المتاحة هي النقط الصفراء والحمراء على الخريطة.

حرك المؤشر فوق النقطة لمعرفة اسم المحطة.

ثم انقر لمعرفة أرصاد وتوقعات الطقس.

لتغيير الخارطة: اضغط على الأزرار الخضراء مع رمز الصليب الأسود للتكبير. على الزر الأخضر مع شرطة للتصغير، أو على الأسهم الخضراء للخرائط المجاورة.


METAR-TAF: